createdAt,value
2022-10-17T00:00:28.154Z,5.45
2022-10-17T00:02:56.105Z,4.97
2022-10-17T00:05:24.010Z,5.75
2022-10-17T00:07:52.015Z,5.20
2022-10-17T00:10:20.695Z,4.88
2022-10-17T00:12:49.060Z,4.38
2022-10-17T00:15:20.547Z,5.45
2022-10-17T00:17:48.488Z,4.90
2022-10-17T00:20:16.869Z,4.97
2022-10-17T00:22:44.942Z,4.75
2022-10-17T00:25:13.394Z,5.68
2022-10-17T00:27:42.558Z,5.22
2022-10-17T00:30:13.634Z,5.32
2022-10-17T00:32:43.396Z,5.65
2022-10-17T00:35:13.740Z,5.03
2022-10-17T00:37:42.874Z,4.72
2022-10-17T00:40:12.058Z,4.57
2022-10-17T00:42:40.209Z,4.22
2022-10-17T00:45:22.058Z,4.00
2022-10-17T00:47:55.251Z,3.92
2022-10-17T00:50:23.464Z,3.67
2022-10-17T00:52:52.357Z,3.22
2022-10-17T00:55:26.360Z,3.50
2022-10-17T00:57:54.742Z,3.05
2022-10-17T01:00:22.712Z,3.63
2022-10-17T01:02:52.060Z,3.28
2022-10-17T01:05:20.833Z,3.10
2022-10-17T01:07:51.817Z,3.50
2022-10-17T01:10:20.783Z,3.90
2022-10-17T01:12:58.615Z,3.50
2022-10-17T01:15:40.668Z,3.40
2022-10-17T01:18:25.724Z,4.28
2022-10-17T01:21:22.435Z,3.80
2022-10-17T01:24:14.655Z,3.75
2022-10-17T01:27:06.927Z,3.72
2022-10-17T01:29:58.406Z,3.92
2022-10-17T01:32:35.984Z,3.72
2022-10-17T01:35:12.679Z,4.18
2022-10-17T01:37:47.376Z,3.83
2022-10-17T01:40:21.378Z,3.90
2022-10-17T01:43:03.404Z,4.43
2022-10-17T01:45:38.500Z,4.22
2022-10-17T01:48:12.566Z,3.65
2022-10-17T01:50:47.500Z,4.40
2022-10-17T01:53:20.164Z,4.10
2022-10-17T01:55:51.637Z,4.50
2022-10-17T01:58:25.242Z,4.35
2022-10-17T02:00:55.416Z,3.90
2022-10-17T02:03:25.890Z,4.75
2022-10-17T02:05:53.756Z,4.00
2022-10-17T02:08:29.328Z,4.03
2022-10-17T02:11:01.997Z,4.63
2022-10-17T02:13:42.352Z,5.07
2022-10-17T02:16:27.152Z,4.00
2022-10-17T02:19:09.474Z,4.45
2022-10-17T02:21:45.766Z,3.55
2022-10-17T02:24:21.642Z,4.70
2022-10-17T02:26:56.646Z,4.63
2022-10-17T02:29:30.221Z,4.18
2022-10-17T02:32:03.169Z,4.75
2022-10-17T02:34:37.554Z,4.40
2022-10-17T02:37:08.197Z,4.45
2022-10-17T02:42:08.579Z,4.07
2022-10-17T02:44:40.642Z,4.20
2022-10-17T02:47:18.298Z,3.78
2022-10-17T02:49:52.673Z,4.75
2022-10-17T02:52:26.642Z,4.68
2022-10-17T02:54:59.766Z,4.30
2022-10-17T02:57:32.067Z,4.07
2022-10-17T03:00:03.893Z,4.18
2022-10-17T03:02:40.102Z,4.70
2022-10-17T03:05:13.578Z,4.90
2022-10-17T03:07:41.544Z,4.47
2022-10-17T03:10:09.501Z,4.00
2022-10-17T03:12:37.771Z,4.68
2022-10-17T03:15:06.938Z,4.85
2022-10-17T03:17:36.286Z,4.78
2022-10-17T03:20:04.698Z,4.30
2022-10-17T03:22:34.583Z,4.80
2022-10-17T03:25:04.882Z,4.38
2022-10-17T03:27:35.886Z,4.57
2022-10-17T03:30:04.594Z,5.78
2022-10-17T03:32:34.909Z,6.40
2022-10-17T03:35:02.866Z,6.73
2022-10-17T03:37:31.312Z,5.00
2022-10-17T03:40:01.780Z,5.63
2022-10-17T03:42:30.468Z,5.20
2022-10-17T03:44:58.761Z,5.22
2022-10-17T03:47:27.018Z,5.30
2022-10-17T03:49:55.113Z,4.70
2022-10-17T03:52:23.002Z,5.03
2022-10-17T03:54:55.713Z,5.18
2022-10-17T03:57:25.156Z,5.65
2022-10-17T03:59:53.527Z,5.57
2022-10-17T04:02:22.559Z,5.65
2022-10-17T04:04:51.138Z,5.50
2022-10-17T04:07:19.311Z,5.35
2022-10-17T04:09:49.829Z,5.35
2022-10-17T04:12:20.593Z,5.78
2022-10-17T04:14:50.056Z,5.35
2022-10-17T04:17:18.369Z,5.80
2022-10-17T04:19:46.514Z,5.50
2022-10-17T04:22:17.246Z,5.50
2022-10-17T04:24:45.124Z,6.43
2022-10-17T04:27:31.570Z,5.95
2022-10-17T04:30:01.075Z,5.82
2022-10-17T04:32:31.834Z,5.53
2022-10-17T04:37:55.894Z,6.63
2022-10-17T04:40:23.970Z,6.22
2022-10-17T04:42:54.118Z,6.38
2022-10-17T04:45:28.311Z,6.03
2022-10-17T04:48:01.051Z,5.65
2022-10-17T04:50:29.106Z,6.30
2022-10-17T04:53:32.515Z,5.70
2022-10-17T04:58:30.002Z,6.93
2022-10-17T05:00:59.331Z,5.47
2022-10-17T05:03:30.340Z,5.38
2022-10-17T05:05:58.201Z,6.68
2022-10-17T05:08:26.204Z,6.20
2022-10-17T05:10:54.097Z,6.03
2022-10-17T05:13:21.975Z,6.38
2022-10-17T05:15:50.375Z,6.43
2022-10-17T05:18:20.123Z,6.63
2022-10-17T05:20:48.062Z,6.47
2022-10-17T05:23:16.840Z,6.50
2022-10-17T05:25:46.002Z,5.78
2022-10-17T05:28:13.914Z,5.97
2022-10-17T05:30:43.686Z,5.80
2022-10-17T05:33:11.595Z,6.35
2022-10-17T05:35:40.884Z,6.30
2022-10-17T05:38:08.930Z,6.18
2022-10-17T05:40:39.306Z,6.28
2022-10-17T05:43:07.385Z,5.78
2022-10-17T05:45:35.170Z,5.60
2022-10-17T05:48:03.443Z,6.00
2022-10-17T05:50:31.707Z,5.72
2022-10-17T05:53:16.698Z,6.20
2022-10-17T05:55:56.753Z,5.45
2022-10-17T05:58:45.409Z,5.88
2022-10-17T06:01:22.991Z,6.45
2022-10-17T06:03:50.930Z,5.95
2022-10-17T06:06:20.004Z,6.28
2022-10-17T06:08:50.551Z,6.20
2022-10-17T06:11:24.038Z,5.82
2022-10-17T06:13:51.927Z,6.85
2022-10-17T06:16:24.973Z,7.18
2022-10-17T06:18:52.845Z,6.53
2022-10-17T06:21:23.551Z,7.25
2022-10-17T06:23:54.782Z,6.50
2022-10-17T06:26:30.093Z,7.60
2022-10-17T06:28:58.395Z,7.90
2022-10-17T06:31:30.107Z,6.90
2022-10-17T06:33:57.897Z,7.72
2022-10-17T06:36:25.827Z,8.70
2022-10-17T06:38:55.163Z,8.75
2022-10-17T06:41:30.416Z,8.48
2022-10-17T06:44:10.943Z,8.63
2022-10-17T06:46:57.464Z,8.77
2022-10-17T06:49:25.801Z,9.25
2022-10-17T06:52:01.014Z,8.27
2022-10-17T06:54:53.771Z,9.43
2022-10-17T06:57:32.199Z,8.77
2022-10-17T07:00:23.332Z,8.43
2022-10-17T07:02:55.037Z,9.23
2022-10-17T07:05:23.022Z,9.48
2022-10-17T07:07:51.042Z,8.85
2022-10-17T07:10:21.329Z,8.43
2022-10-17T07:12:49.407Z,9.10
2022-10-17T07:15:17.259Z,8.77
2022-10-17T07:17:50.329Z,8.73
2022-10-17T07:20:20.362Z,8.23
2022-10-17T07:22:50.932Z,7.47
2022-10-17T07:25:21.044Z,7.95
2022-10-17T07:27:56.304Z,7.65
2022-10-17T07:30:24.931Z,7.35
2022-10-17T07:33:06.799Z,7.18
2022-10-17T07:35:35.522Z,6.63
2022-10-17T07:38:03.388Z,7.03
2022-10-17T07:40:32.734Z,5.95
2022-10-17T07:43:01.515Z,7.05
2022-10-17T07:45:30.228Z,7.30
2022-10-17T07:47:59.020Z,7.07
2022-10-17T07:50:27.164Z,6.80
2022-10-17T07:52:55.162Z,6.63
2022-10-17T07:55:23.064Z,6.70
2022-10-17T07:57:52.282Z,6.13
2022-10-17T08:00:20.201Z,6.00
2022-10-17T08:02:48.418Z,5.65
2022-10-17T08:05:16.487Z,5.22
2022-10-17T08:07:44.311Z,5.20
2022-10-17T08:10:13.409Z,4.72
2022-10-17T08:12:41.578Z,4.75
2022-10-17T08:15:12.186Z,4.93
2022-10-17T08:17:40.420Z,4.28
2022-10-17T08:20:09.254Z,4.47
2022-10-17T08:22:37.239Z,4.50
2022-10-17T08:25:05.645Z,4.35
2022-10-17T08:27:34.502Z,4.35
2022-10-17T08:30:02.967Z,4.07
2022-10-17T08:32:32.705Z,4.70
2022-10-17T08:35:01.231Z,4.22
2022-10-17T08:37:30.438Z,3.95
2022-10-17T08:39:58.496Z,4.23
2022-10-17T08:42:40.055Z,4.05
2022-10-17T08:45:16.362Z,3.80
2022-10-17T08:47:47.380Z,3.58
2022-10-17T08:50:25.100Z,4.20
2022-10-17T08:52:56.429Z,4.18
2022-10-17T08:55:30.772Z,4.07
2022-10-17T08:57:58.933Z,3.60
2022-10-17T09:00:30.763Z,3.55
2022-10-17T09:03:19.348Z,3.67
2022-10-17T09:05:52.586Z,3.60
2022-10-17T09:08:32.959Z,3.85
2022-10-17T09:11:08.260Z,4.07
2022-10-17T09:13:48.359Z,5.38
2022-10-17T09:16:40.184Z,5.05
2022-10-17T09:19:18.371Z,3.78
2022-10-17T09:21:51.472Z,3.47
2022-10-17T09:24:25.397Z,3.47
2022-10-17T09:26:55.669Z,3.70
2022-10-17T09:32:01.767Z,3.67
2022-10-17T09:34:33.386Z,3.40
2022-10-17T09:37:03.247Z,3.58
2022-10-17T09:39:32.052Z,3.75
2022-10-17T09:42:01.613Z,4.25
2022-10-17T09:44:32.316Z,4.13
2022-10-17T09:47:24.475Z,4.00
2022-10-17T09:49:54.133Z,3.67
2022-10-17T09:52:27.118Z,3.70
2022-10-17T09:55:00.849Z,3.53
2022-10-17T09:57:28.718Z,3.72
2022-10-17T10:00:02.010Z,3.92
2022-10-17T10:02:33.529Z,3.22
2022-10-17T10:05:06.751Z,3.20
2022-10-17T10:07:37.231Z,3.45
2022-10-17T10:12:35.707Z,3.35
2022-10-17T10:15:24.019Z,4.00
2022-10-17T10:17:51.854Z,3.53
2022-10-17T10:20:31.581Z,3.35
2022-10-17T10:23:14.224Z,3.88
2022-10-17T10:25:54.602Z,3.72
2022-10-17T10:28:26.565Z,3.83
2022-10-17T10:30:56.953Z,4.63
2022-10-17T10:33:28.566Z,15.20
2022-10-17T10:36:01.599Z,4.85
2022-10-17T10:38:30.685Z,4.03
2022-10-17T10:41:04.372Z,3.22
2022-10-17T10:43:36.598Z,6.00
2022-10-17T10:46:07.460Z,3.75
2022-10-17T10:48:36.969Z,3.47
2022-10-17T10:51:14.529Z,4.57
2022-10-17T10:53:48.324Z,3.50
2022-10-17T10:56:20.126Z,3.47
2022-10-17T10:58:55.249Z,3.67
2022-10-17T11:01:30.435Z,4.85
2022-10-17T11:04:13.179Z,3.65
2022-10-17T11:06:45.882Z,3.47
2022-10-17T11:09:26.234Z,3.47
2022-10-17T11:12:00.001Z,3.53
2022-10-17T11:14:39.457Z,3.22
2022-10-17T11:17:18.640Z,3.38
2022-10-17T11:19:52.672Z,4.00
2022-10-17T11:22:29.294Z,3.45
2022-10-17T11:25:01.646Z,3.53
2022-10-17T11:27:30.697Z,3.53
2022-10-17T11:29:59.533Z,3.80
2022-10-17T11:32:32.884Z,3.75
2022-10-17T11:35:05.146Z,3.53
2022-10-17T11:37:39.511Z,3.50
2022-10-17T11:40:19.317Z,3.30
2022-10-17T11:42:56.076Z,3.25
2022-10-17T11:45:26.490Z,3.28
2022-10-17T11:48:00.069Z,3.65
2022-10-17T11:53:23.867Z,3.50
2022-10-17T11:55:53.649Z,3.33
2022-10-17T11:58:35.804Z,3.78
2022-10-17T12:01:16.028Z,3.13
2022-10-17T12:06:25.852Z,3.42
2022-10-17T12:09:02.588Z,3.40
2022-10-17T12:11:41.371Z,3.55
2022-10-17T12:14:37.956Z,3.53
2022-10-17T12:17:07.517Z,3.53
2022-10-17T12:19:37.691Z,3.30
2022-10-17T12:24:41.323Z,3.17
2022-10-17T12:27:42.350Z,3.70
2022-10-17T12:30:24.967Z,3.42
2022-10-17T12:33:07.789Z,3.67
2022-10-17T12:35:37.772Z,3.42
2022-10-17T12:38:21.424Z,3.20
2022-10-17T12:40:53.456Z,3.33
2022-10-17T12:43:46.794Z,3.85
2022-10-17T12:46:34.801Z,3.45
2022-10-17T12:49:06.176Z,3.35
2022-10-17T12:52:07.234Z,3.60
2022-10-17T12:54:47.653Z,3.22
2022-10-17T12:57:25.355Z,3.30
2022-10-17T12:59:57.866Z,3.50
2022-10-17T13:02:30.773Z,3.30
2022-10-17T13:05:07.865Z,3.67
2022-10-17T13:07:37.825Z,5.50
2022-10-17T13:10:07.687Z,3.65
2022-10-17T13:12:41.159Z,3.50
2022-10-17T13:15:16.749Z,3.67
2022-10-17T13:17:44.659Z,3.85
2022-10-17T13:20:25.650Z,3.30
2022-10-17T13:22:58.366Z,3.50
2022-10-17T13:25:28.746Z,3.83
2022-10-17T13:28:12.856Z,3.40
2022-10-17T13:30:41.016Z,3.65
2022-10-17T13:33:32.280Z,3.45
2022-10-17T13:36:03.122Z,3.72
2022-10-17T13:38:35.628Z,3.60
2022-10-17T13:41:33.523Z,3.40
2022-10-17T13:43:53.451Z,3.83
2022-10-17T13:46:37.229Z,3.60
2022-10-17T13:49:16.498Z,3.50
2022-10-17T13:51:47.952Z,4.00
2022-10-17T13:54:29.377Z,3.55
2022-10-17T13:56:58.112Z,3.90
2022-10-17T13:59:29.952Z,3.38
2022-10-17T14:01:57.979Z,3.70
2022-10-17T14:04:25.859Z,3.33
2022-10-17T14:06:55.471Z,4.05
2022-10-17T14:09:26.777Z,3.63
2022-10-17T14:12:01.697Z,4.43
2022-10-17T14:14:46.105Z,10.02
2022-10-17T14:17:24.832Z,4.15
2022-10-17T14:20:16.074Z,4.20
2022-10-17T14:22:50.451Z,3.80
2022-10-17T14:25:30.604Z,4.40
2022-10-17T14:28:08.079Z,3.45
2022-10-17T14:30:55.722Z,3.58
2022-10-17T14:33:27.781Z,4.47
2022-10-17T14:35:57.469Z,4.07
2022-10-17T14:38:28.528Z,3.80
2022-10-17T14:41:22.102Z,4.07
2022-10-17T14:43:54.524Z,4.18
2022-10-17T14:46:22.487Z,4.15
2022-10-17T14:48:58.569Z,3.90
2022-10-17T14:51:26.561Z,3.67
2022-10-17T14:54:19.090Z,4.00
2022-10-17T14:56:52.365Z,4.38
2022-10-17T14:59:48.526Z,3.75
2022-10-17T15:02:12.025Z,4.07
2022-10-17T15:04:39.843Z,4.85
2022-10-17T15:07:07.810Z,5.07
2022-10-17T15:09:37.422Z,4.07
2022-10-17T15:12:12.204Z,5.55
2022-10-17T15:14:40.068Z,4.78
2022-10-17T15:17:14.148Z,4.78
2022-10-17T15:19:42.473Z,4.38
2022-10-17T15:22:10.593Z,4.03
2022-10-17T15:24:40.098Z,4.50
2022-10-17T15:27:14.828Z,4.60
2022-10-17T15:29:42.763Z,4.53
2022-10-17T15:32:10.846Z,4.72
2022-10-17T15:34:38.741Z,4.50
2022-10-17T15:37:07.495Z,4.20
2022-10-17T15:39:35.322Z,5.18
2022-10-17T15:42:06.454Z,4.22
2022-10-17T15:44:34.277Z,4.85
2022-10-17T15:47:02.913Z,5.28
2022-10-17T15:49:30.805Z,5.82
2022-10-17T15:51:58.625Z,5.55
2022-10-17T15:54:26.491Z,5.78
2022-10-17T15:56:56.061Z,5.30
2022-10-17T15:59:33.080Z,4.50
2022-10-17T16:02:00.954Z,4.80
2022-10-17T16:04:30.621Z,4.82
2022-10-17T16:06:58.416Z,4.93
2022-10-17T16:09:26.279Z,5.47
2022-10-17T16:11:54.137Z,5.80
2022-10-17T16:14:21.961Z,5.55
2022-10-17T16:16:51.167Z,5.88
2022-10-17T16:19:19.041Z,5.38
2022-10-17T16:21:47.058Z,5.05
2022-10-17T16:24:14.869Z,5.30
2022-10-17T16:26:42.738Z,5.80
2022-10-17T16:29:10.684Z,4.78
2022-10-17T16:31:42.897Z,5.15
2022-10-17T16:34:14.128Z,5.90
2022-10-17T16:36:42.870Z,4.75
2022-10-17T16:39:10.780Z,4.57
2022-10-17T16:41:40.298Z,4.93
2022-10-17T16:44:10.232Z,5.05
2022-10-17T16:46:38.824Z,5.47
2022-10-17T16:49:07.566Z,5.53
2022-10-17T16:51:36.957Z,6.32
2022-10-17T16:54:05.280Z,5.97
2022-10-17T16:56:33.315Z,5.70
2022-10-17T16:59:02.230Z,7.43
2022-10-17T17:01:30.438Z,8.75
2022-10-17T17:03:59.925Z,7.80
2022-10-17T17:06:30.141Z,8.73
2022-10-17T17:08:59.458Z,5.00
2022-10-17T17:11:29.339Z,5.97
2022-10-17T17:13:58.525Z,5.32
2022-10-17T17:16:27.911Z,5.25
2022-10-17T17:18:57.408Z,5.63
2022-10-17T17:21:27.036Z,5.45
2022-10-17T17:23:57.224Z,6.07
2022-10-17T17:26:28.172Z,10.02
2022-10-17T17:28:58.630Z,11.35
2022-10-17T17:31:28.341Z,5.95
2022-10-17T17:33:56.780Z,5.05
2022-10-17T17:36:26.479Z,5.75
2022-10-17T17:38:56.339Z,5.07
2022-10-17T17:41:26.400Z,5.53
2022-10-17T17:43:54.777Z,5.30
2022-10-17T17:46:23.989Z,5.80
2022-10-17T17:48:53.167Z,6.70
2022-10-17T17:51:28.440Z,6.10
2022-10-17T17:53:57.816Z,5.93
2022-10-17T17:56:28.858Z,6.18
2022-10-17T17:58:59.626Z,6.03
2022-10-17T18:01:28.984Z,5.82
2022-10-17T18:03:58.863Z,6.13
2022-10-17T18:06:27.467Z,5.97
2022-10-17T18:08:59.212Z,6.30
2022-10-17T18:11:29.636Z,5.82
2022-10-17T18:13:58.930Z,5.93
2022-10-17T18:16:27.974Z,6.13
2022-10-17T18:18:56.130Z,6.13
2022-10-17T18:21:24.067Z,6.35
2022-10-17T18:23:52.813Z,6.60
2022-10-17T18:26:20.854Z,6.50
2022-10-17T18:28:50.939Z,6.32
2022-10-17T18:33:53.772Z,7.40
2022-10-17T18:36:22.725Z,7.82
2022-10-17T18:38:51.495Z,7.53
2022-10-17T18:41:21.796Z,7.95
2022-10-17T18:43:52.780Z,8.27
2022-10-17T18:46:22.425Z,8.50
2022-10-17T18:48:52.719Z,10.60
2022-10-17T18:51:22.469Z,9.45
2022-10-17T18:53:52.019Z,10.23
2022-10-17T18:56:20.856Z,9.15
2022-10-17T18:58:48.958Z,9.50
2022-10-17T19:01:20.505Z,9.07
2022-10-17T19:03:50.631Z,9.48
2022-10-17T19:06:20.722Z,9.68
2022-10-17T19:08:48.991Z,10.32
2022-10-17T19:11:19.007Z,9.80
2022-10-17T19:13:48.053Z,10.30
2022-10-17T19:16:19.068Z,11.48
2022-10-17T19:18:50.906Z,9.73
2022-10-17T19:21:21.869Z,11.13
2022-10-17T19:23:52.314Z,11.15
2022-10-17T19:26:21.217Z,10.93
2022-10-17T19:28:51.490Z,11.18
2022-10-17T19:31:25.573Z,12.38
2022-10-17T19:33:54.813Z,12.43
2022-10-17T19:36:27.470Z,13.02
2022-10-17T19:38:59.309Z,12.27
2022-10-17T19:41:27.989Z,12.55
2022-10-17T19:43:56.120Z,12.25
2022-10-17T19:46:27.071Z,11.85
2022-10-17T19:48:55.341Z,13.52
2022-10-17T19:51:25.355Z,12.20
2022-10-17T19:53:55.019Z,12.25
2022-10-17T19:56:24.584Z,12.95
2022-10-17T19:58:53.973Z,13.95
2022-10-17T20:01:26.072Z,13.80
2022-10-17T20:03:54.487Z,14.27
2022-10-17T20:06:23.193Z,12.85
2022-10-17T20:08:51.685Z,13.93
2022-10-17T20:11:21.822Z,13.70
2022-10-17T20:13:50.511Z,14.43
2022-10-17T20:16:21.403Z,14.25
2022-10-17T20:18:51.985Z,14.75
2022-10-17T20:21:22.319Z,16.27
2022-10-17T20:23:51.324Z,16.98
2022-10-17T20:26:36.552Z,17.55
2022-10-17T20:29:11.228Z,17.75
2022-10-17T20:31:40.495Z,17.83
2022-10-17T20:34:13.649Z,17.95
2022-10-17T20:36:42.084Z,16.90
2022-10-17T20:39:12.266Z,20.23
2022-10-17T20:44:08.453Z,19.67
2022-10-17T20:46:38.459Z,21.55
2022-10-17T20:49:10.292Z,20.15
2022-10-17T20:51:38.410Z,20.20
2022-10-17T20:54:06.974Z,21.02
2022-10-17T20:56:36.097Z,20.85
2022-10-17T20:59:06.515Z,21.48
2022-10-17T21:01:36.377Z,22.77
2022-10-17T21:06:54.518Z,20.92
2022-10-17T21:09:22.835Z,21.50
2022-10-17T21:11:55.043Z,21.55
2022-10-17T21:14:24.225Z,22.55
2022-10-17T21:16:53.247Z,23.15
2022-10-17T21:19:22.316Z,22.52
2022-10-17T21:21:50.479Z,24.60
2022-10-17T21:24:20.786Z,23.13
2022-10-17T21:26:55.173Z,21.88
2022-10-17T21:29:24.187Z,31.73
2022-10-17T21:31:55.056Z,41.00
2022-10-17T21:34:25.065Z,28.38
2022-10-17T21:36:53.703Z,28.92
2022-10-17T21:39:24.782Z,28.20
2022-10-17T21:41:53.503Z,30.65
2022-10-17T21:44:23.338Z,27.40
2022-10-17T21:46:52.417Z,27.95
2022-10-17T21:49:22.035Z,26.42
2022-10-17T21:51:51.677Z,26.55
2022-10-17T21:54:22.930Z,27.63
2022-10-17T21:56:51.442Z,26.58
2022-10-17T21:59:19.414Z,26.75
2022-10-17T22:01:47.727Z,26.40
2022-10-17T22:04:17.235Z,25.50
2022-10-17T22:06:46.757Z,23.90
2022-10-17T22:09:16.522Z,26.88
2022-10-17T22:11:48.311Z,27.33
2022-10-17T22:14:18.329Z,25.40
2022-10-17T22:16:47.440Z,25.50
2022-10-17T22:19:17.953Z,28.65
2022-10-17T22:21:45.901Z,26.55
2022-10-17T22:24:16.709Z,28.08
2022-10-17T22:26:46.697Z,29.80
2022-10-17T22:29:15.088Z,29.23
2022-10-17T22:31:43.065Z,30.77
2022-10-17T22:34:13.509Z,32.65
2022-10-17T22:36:41.721Z,34.00
2022-10-17T22:39:09.664Z,31.80
2022-10-17T22:41:37.583Z,33.00
2022-10-17T22:44:08.034Z,33.10
2022-10-17T22:46:36.067Z,33.67
2022-10-17T22:49:03.927Z,35.08
2022-10-17T22:51:31.899Z,34.15
2022-10-17T22:53:59.676Z,30.95
2022-10-17T22:56:27.565Z,29.70
2022-10-17T22:58:55.420Z,30.95
2022-10-17T23:01:26.524Z,33.67
2022-10-17T23:03:55.315Z,30.20
2022-10-17T23:06:24.047Z,33.53
2022-10-17T23:08:52.824Z,33.20
2022-10-17T23:11:21.235Z,31.70
2022-10-17T23:13:49.192Z,34.38
2022-10-17T23:16:17.357Z,34.15
2022-10-17T23:18:46.925Z,32.53
2022-10-17T23:21:14.827Z,37.97
2022-10-17T23:23:42.821Z,33.35
2022-10-17T23:26:12.891Z,34.63
2022-10-17T23:28:41.743Z,35.70
2022-10-17T23:31:11.126Z,37.80
2022-10-17T23:33:41.253Z,35.70
2022-10-17T23:38:39.001Z,33.80
2022-10-17T23:41:07.156Z,34.55
2022-10-17T23:43:35.237Z,32.15
2022-10-17T23:46:03.409Z,30.75
2022-10-17T23:48:31.611Z,33.45
2022-10-17T23:50:59.647Z,37.85
2022-10-17T23:53:28.822Z,37.95
2022-10-17T23:55:56.946Z,37.30
2022-10-17T23:58:24.797Z,34.95
